»·PEaware :: SWA1828 KDEN-KGJT

SWA1828 :: KDEN-KGJT

FLIGHT INFORMATION

Flight Status: Arrived
Operator:
Southwest Airlines
More flights by this operator :: More flights under this callsign
Pilot: Erik S. (3779)
Aircraft: BOEING 737-300
(B733)
More flights by this aircraft type
Origin: KDEN Denver Intl
United States
Destination: KGJT Walker
United States
More flights between these airports :: More routes between these airports
Route: CONNR4 DBL JNC
File this flight plan on PilotEdge
Remarks:
Altitude:
(Current/Filed)
28,000ft
Speed:
(Current/Filed)
478kts
Departed: 29-Sep-17 08:47 AM
Arrived: 29-Sep-17 09:37 AM
Distance/Time
Traveled:
184nm/0:50
Distance/Time
To Go:
Arrived

Flight Plot

Page will automatically refresh every two minutes.

Flight plan parsing failed; only flown route is shown


Map Options




Map Legend


Flown Route
Filed Route
Departure Airport
Arrival Airport
Navaid (VOR, NDB)
Fix

Horizontal Profiles

Position Reports

Time Latitude Longitude Heading Altitude Ground
Speed
29-Sep-17 08:35 39.853428 -104.677951 55 5438ft 0kts
29-Sep-17 08:36 39.853428 -104.677951 55 5438ft 0kts
29-Sep-17 08:37 39.853428 -104.677951 55 5438ft 0kts
29-Sep-17 08:38 39.853428 -104.677951 55 5438ft 0kts
29-Sep-17 08:39 39.853428 -104.677951 55 5438ft 0kts
29-Sep-17 08:40 39.853428 -104.677951 55 5438ft 0kts
29-Sep-17 08:41 39.853428 -104.677951 55 5438ft 0kts
29-Sep-17 08:42 39.853428 -104.677951 55 5438ft 0kts
29-Sep-17 08:43 39.853428 -104.677951 55 5438ft 0kts
29-Sep-17 08:44 39.853057 -104.678405 7 5438ft 0kts
29-Sep-17 08:45 39.852867 -104.678973 254 5438ft 8kts
29-Sep-17 08:46 39.852354 -104.682331 233 5438ft 11kts
29-Sep-17 08:47 39.850033 -104.684072 179 5438ft 11kts
29-Sep-17 08:48 39.846750 -104.684157 183 5438ft 11kts
29-Sep-17 08:49 39.843219 -104.684159 180 5438ft 13kts
29-Sep-17 08:50 39.840667 -104.686182 271 5438ft 36kts
29-Sep-17 08:51 39.840813 -104.731648 271 6106ft 160kts
29-Sep-17 08:52 39.840852 -104.800047 270 7427ft 228kts
29-Sep-17 08:53 39.839625 -104.887754 265 9723ft 275kts
29-Sep-17 08:54 39.836930 -104.995684 268 11280ft 333kts
29-Sep-17 08:55 39.815861 -105.113699 253 14330ft 346kts
29-Sep-17 08:56 39.789890 -105.235750 252 17227ft 356kts
29-Sep-17 08:57 39.762916 -105.361277 252 19846ft 366kts
29-Sep-17 08:58 39.735365 -105.493021 252 21290ft 397kts
29-Sep-17 08:59 39.706526 -105.634426 253 22760ft 390kts
29-Sep-17 09:00 39.686279 -105.770110 258 25169ft 390kts
29-Sep-17 09:01 39.670960 -105.906021 258 27729ft 375kts
29-Sep-17 09:02 39.655777 -106.040905 258 28075ft 387kts
29-Sep-17 09:03 39.639812 -106.185408 258 28208ft 413kts
29-Sep-17 09:04 39.622064 -106.330305 248 28405ft 408kts
29-Sep-17 09:05 39.580635 -106.464137 245 28407ft 406kts
29-Sep-17 09:06 39.540402 -106.591879 245 28376ft 406kts
29-Sep-17 09:07 39.496371 -106.726667 244 28377ft 406kts
29-Sep-17 09:08 39.452101 -106.860031 244 28368ft 407kts
29-Sep-17 09:09 39.417230 -106.999383 253 28363ft 412kts
29-Sep-17 09:10 39.389366 -107.143826 254 28361ft 414kts
29-Sep-17 09:11 39.361630 -107.288332 253 28357ft 413kts
29-Sep-17 09:12 39.333594 -107.431839 253 28115ft 418kts
29-Sep-17 09:13 39.305335 -107.575509 253 25937ft 414kts
29-Sep-17 09:14 39.276898 -107.719022 253 23727ft 406kts
29-Sep-17 09:15 39.249050 -107.858569 253 21523ft 397kts
29-Sep-17 09:16 39.221837 -107.994043 253 19129ft 386kts
29-Sep-17 09:17 39.195812 -108.123201 253 16773ft 375kts
29-Sep-17 09:18 39.200177 -108.253349 253 14397ft 364kts
29-Sep-17 09:19 39.176036 -108.356153 249 13125ft 339kts
29-Sep-17 09:20 39.141478 -108.489738 249 12998ft 331kts
29-Sep-17 09:21 39.119290 -108.576159 249 13018ft 271kts
29-Sep-17 09:22 39.098150 -108.659447 245 12945ft 233kts
29-Sep-17 09:23 39.070550 -108.739163 243 12942ft 240kts
29-Sep-17 09:24 39.045425 -108.811425 243 11956ft 208kts
29-Sep-17 09:25 39.023223 -108.876179 243 12009ft 194kts
29-Sep-17 09:26 39.002748 -108.939578 245 11992ft 192kts
29-Sep-17 09:27 38.983107 -109.003949 246 11987ft 194kts
29-Sep-17 09:28 38.992147 -109.073154 308 11961ft 204kts
29-Sep-17 09:29 39.047684 -109.085692 3 10237ft 209kts
29-Sep-17 09:30 39.103048 -109.072897 21 8248ft 190kts
29-Sep-17 09:31 39.154492 -109.044363 26 8208ft 204kts
29-Sep-17 09:32 39.208859 -109.009560 37 8223ft 234kts
29-Sep-17 09:33 39.251927 -108.949893 62 8193ft 224kts
29-Sep-17 09:34 39.274820 -108.876005 83 8199ft 220kts
29-Sep-17 09:35 39.268327 -108.799519 110 8139ft 215kts
29-Sep-17 09:36 39.241285 -108.733111 131 7283ft 204kts
29-Sep-17 09:37 39.208752 -108.679827 128 6625ft 174kts
29-Sep-17 09:38 39.181591 -108.629356 128 6349ft 155kts
29-Sep-17 09:39 39.158496 -108.587310 128 5626ft 144kts
29-Sep-17 09:40 39.135814 -108.545974 127 4926ft 141kts
29-Sep-17 09:41 39.122606 -108.523375 220 4864ft 12kts
29-Sep-17 09:42 39.121149 -108.524564 210 4864ft 0kts
29-Sep-17 09:43 39.121149 -108.524564 210 4864ft 0kts

Navigation Log

Ident Type
Flight plan parsing failed, navigation log unavailable